sensor_id;sensor_type;location;lat;lon;timestamp;temperature;humidity
6581;DHT22;3324;50.796;7.228;2022-09-03T00:00:21;16.70;99.90
6581;DHT22;3324;50.796;7.228;2022-09-03T00:03:11;16.70;99.90
6581;DHT22;3324;50.796;7.228;2022-09-03T00:05:42;16.60;99.90
6581;DHT22;3324;50.796;7.228;2022-09-03T00:08:18;16.70;99.90
6581;DHT22;3324;50.796;7.228;2022-09-03T00:11:00;16.60;99.90
6581;DHT22;3324;50.796;7.228;2022-09-03T00:13:38;16.60;99.90
6581;DHT22;3324;50.796;7.228;2022-09-03T00:16:10;16.60;99.90
6581;DHT22;3324;50.796;7.228;2022-09-03T00:18:43;16.50;99.90
6581;DHT22;3324;50.796;7.228;2022-09-03T00:21:17;16.60;99.90
6581;DHT22;3324;50.796;7.228;2022-09-03T00:23:47;16.60;99.90
6581;DHT22;3324;50.796;7.228;2022-09-03T00:26:24;16.50;99.90
6581;DHT22;3324;50.796;7.228;2022-09-03T00:28:54;16.50;99.90
6581;DHT22;3324;50.796;7.228;2022-09-03T00:31:24;16.50;99.90
6581;DHT22;3324;50.796;7.228;2022-09-03T00:33:57;16.50;99.90
6581;DHT22;3324;50.796;7.228;2022-09-03T00:36:33;16.40;99.90
6581;DHT22;3324;50.796;7.228;2022-09-03T00:39:00;16.50;99.90
6581;DHT22;3324;50.796;7.228;2022-09-03T00:41:35;16.50;99.90
6581;DHT22;3324;50.796;7.228;2022-09-03T00:55:30;16.60;99.90
6581;DHT22;3324;50.796;7.228;2022-09-03T00:58:01;16.50;99.90
6581;DHT22;3324;50.796;7.228;2022-09-03T01:00:34;16.50;99.90
6581;DHT22;3324;50.796;7.228;2022-09-03T01:08:47;16.40;99.90
6581;DHT22;3324;50.796;7.228;2022-09-03T01:12:21;16.40;99.90
6581;DHT22;3324;50.796;7.228;2022-09-03T01:14:22;16.40;99.90
6581;DHT22;3324;50.796;7.228;2022-09-03T01:16:52;16.40;99.90
6581;DHT22;3324;50.796;7.228;2022-09-03T01:30:47;16.40;99.90
6581;DHT22;3324;50.796;7.228;2022-09-03T01:33:27;16.40;99.90
6581;DHT22;3324;50.796;7.228;2022-09-03T01:38:35;16.30;99.90
6581;DHT22;3324;50.796;7.228;2022-09-03T01:47:03;16.40;99.90
6581;DHT22;3324;50.796;7.228;2022-09-03T01:49:37;16.40;99.90
6581;DHT22;3324;50.796;7.228;2022-09-03T01:52:11;16.40;99.90
6581;DHT22;3324;50.796;7.228;2022-09-03T02:00:12;16.30;99.90
6581;DHT22;3324;50.796;7.228;2022-09-03T02:02:40;16.30;99.90
6581;DHT22;3324;50.796;7.228;2022-09-03T02:05:10;16.30;99.90
6581;DHT22;3324;50.796;7.228;2022-09-03T02:07:40;16.30;99.90
6581;DHT22;3324;50.796;7.228;2022-09-03T02:10:21;16.20;99.90
6581;DHT22;3324;50.796;7.228;2022-09-03T02:12:50;16.20;99.90
6581;DHT22;3324;50.796;7.228;2022-09-03T02:15:19;16.20;99.90
6581;DHT22;3324;50.796;7.228;2022-09-03T02:17:46;16.20;99.90
6581;DHT22;3324;50.796;7.228;2022-09-03T02:20:20;16.20;99.90
6581;DHT22;3324;50.796;7.228;2022-09-03T02:22:47;16.20;99.90
6581;DHT22;3324;50.796;7.228;2022-09-03T02:25:14;16.20;99.90
6581;DHT22;3324;50.796;7.228;2022-09-03T02:27:41;16.10;99.90
6581;DHT22;3324;50.796;7.228;2022-09-03T02:30:07;16.10;99.90
6581;DHT22;3324;50.796;7.228;2022-09-03T02:32:34;16.10;99.90
6581;DHT22;3324;50.796;7.228;2022-09-03T02:35:00;16.10;99.90
6581;DHT22;3324;50.796;7.228;2022-09-03T02:37:26;16.10;99.90
6581;DHT22;3324;50.796;7.228;2022-09-03T02:39:51;16.10;99.90
6581;DHT22;3324;50.796;7.228;2022-09-03T02:42:18;16.10;99.90
6581;DHT22;3324;50.796;7.228;2022-09-03T02:44:47;16.20;99.90
6581;DHT22;3324;50.796;7.228;2022-09-03T02:47:16;16.20;99.90
6581;DHT22;3324;50.796;7.228;2022-09-03T02:49:47;16.10;99.90
6581;DHT22;3324;50.796;7.228;2022-09-03T02:52:14;16.10;99.90
6581;DHT22;3324;50.796;7.228;2022-09-03T02:54:39;16.10;99.90
6581;DHT22;3324;50.796;7.228;2022-09-03T02:57:10;16.10;99.90
6581;DHT22;3324;50.796;7.228;2022-09-03T02:59:36;16.00;99.90
6581;DHT22;3324;50.796;7.228;2022-09-03T03:02:04;16.00;99.90
6581;DHT22;3324;50.796;7.228;2022-09-03T03:04:30;16.00;99.90
6581;DHT22;3324;50.796;7.228;2022-09-03T03:06:56;16.00;99.90
6581;DHT22;3324;50.796;7.228;2022-09-03T03:09:22;15.90;99.90
6581;DHT22;3324;50.796;7.228;2022-09-03T03:11:47;15.90;99.90
6581;DHT22;3324;50.796;7.228;2022-09-03T03:14:16;15.90;99.90
6581;DHT22;3324;50.796;7.228;2022-09-03T03:16:42;16.00;99.90
6581;DHT22;3324;50.796;7.228;2022-09-03T03:19:07;15.90;99.90
6581;DHT22;3324;50.796;7.228;2022-09-03T03:21:33;16.00;99.90
6581;DHT22;3324;50.796;7.228;2022-09-03T03:24:00;15.90;99.90
6581;DHT22;3324;50.796;7.228;2022-09-03T03:26:26;15.90;99.90
6581;DHT22;3324;50.796;7.228;2022-09-03T03:28:55;15.90;99.90
6581;DHT22;3324;50.796;7.228;2022-09-03T03:31:22;15.80;99.90
6581;DHT22;3324;50.796;7.228;2022-09-03T03:33:55;15.80;99.90
6581;DHT22;3324;50.796;7.228;2022-09-03T03:36:23;15.80;99.90
6581;DHT22;3324;50.796;7.228;2022-09-03T03:38:53;15.80;99.90
6581;DHT22;3324;50.796;7.228;2022-09-03T03:41:24;15.90;99.90
6581;DHT22;3324;50.796;7.228;2022-09-03T03:43:55;15.90;99.90
6581;DHT22;3324;50.796;7.228;2022-09-03T03:46:22;15.90;99.90
6581;DHT22;3324;50.796;7.228;2022-09-03T03:48:48;15.80;99.90
6581;DHT22;3324;50.796;7.228;2022-09-03T03:51:14;15.90;99.90
6581;DHT22;3324;50.796;7.228;2022-09-03T03:53:40;15.90;99.90
6581;DHT22;3324;50.796;7.228;2022-09-03T03:56:09;15.90;99.90
6581;DHT22;3324;50.796;7.228;2022-09-03T03:58:35;15.90;99.90
6581;DHT22;3324;50.796;7.228;2022-09-03T04:01:05;15.90;99.90
6581;DHT22;3324;50.796;7.228;2022-09-03T04:03:32;15.90;99.90
6581;DHT22;3324;50.796;7.228;2022-09-03T04:05:58;15.90;99.90
6581;DHT22;3324;50.796;7.228;2022-09-03T04:08:26;15.80;99.90
6581;DHT22;3324;50.796;7.228;2022-09-03T04:10:52;15.80;99.90
6581;DHT22;3324;50.796;7.228;2022-09-03T04:13:18;15.90;99.90
6581;DHT22;3324;50.796;7.228;2022-09-03T04:15:44;15.90;99.90
6581;DHT22;3324;50.796;7.228;2022-09-03T04:18:09;15.80;99.90
6581;DHT22;3324;50.796;7.228;2022-09-03T04:20:35;15.80;99.90
6581;DHT22;3324;50.796;7.228;2022-09-03T04:23:01;15.80;99.90
6581;DHT22;3324;50.796;7.228;2022-09-03T04:25:27;15.80;99.90
6581;DHT22;3324;50.796;7.228;2022-09-03T04:27:53;15.80;99.90
6581;DHT22;3324;50.796;7.228;2022-09-03T04:30:19;15.80;99.90
6581;DHT22;3324;50.796;7.228;2022-09-03T04:32:45;15.90;99.90
6581;DHT22;3324;50.796;7.228;2022-09-03T04:35:25;15.90;99.90
6581;DHT22;3324;50.796;7.228;2022-09-03T04:37:51;15.90;99.90
6581;DHT22;3324;50.796;7.228;2022-09-03T04:40:19;16.00;99.90
6581;DHT22;3324;50.796;7.228;2022-09-03T04:42:45;16.00;99.90
6581;DHT22;3324;50.796;7.228;2022-09-03T04:45:11;16.00;99.90
6581;DHT22;3324;50.796;7.228;2022-09-03T04:47:40;16.10;99.90
6581;DHT22;3324;50.796;7.228;2022-09-03T04:50:06;16.00;99.90
6581;DHT22;3324;50.796;7.228;2022-09-03T04:52:31;16.00;99.90
6581;DHT22;3324;50.796;7.228;2022-09-03T04:54:57;16.00;99.90
6581;DHT22;3324;50.796;7.228;2022-09-03T04:57:23;15.90;99.90
6581;DHT22;3324;50.796;7.228;2022-09-03T04:59:49;15.90;99.90
6581;DHT22;3324;50.796;7.228;2022-09-03T05:02:15;15.80;99.90
6581;DHT22;3324;50.796;7.228;2022-09-03T05:04:41;15.80;99.90
6581;DHT22;3324;50.796;7.228;2022-09-03T05:07:07;15.70;99.90
6581;DHT22;3324;50.796;7.228;2022-09-03T05:09:32;15.80;99.90
6581;DHT22;3324;50.796;7.228;2022-09-03T05:11:59;15.80;99.90
6581;DHT22;3324;50.796;7.228;2022-09-03T05:14:24;15.90;99.90
6581;DHT22;3324;50.796;7.228;2022-09-03T05:16:50;15.90;99.90
6581;DHT22;3324;50.796;7.228;2022-09-03T05:19:16;15.90;99.90
6581;DHT22;3324;50.796;7.228;2022-09-03T05:21:42;16.00;99.90
6581;DHT22;3324;50.796;7.228;2022-09-03T05:24:07;16.00;99.90
6581;DHT22;3324;50.796;7.228;2022-09-03T05:26:35;16.10;99.90
6581;DHT22;3324;50.796;7.228;2022-09-03T05:29:02;16.10;99.90
6581;DHT22;3324;50.796;7.228;2022-09-03T05:31:32;16.10;99.90
6581;DHT22;3324;50.796;7.228;2022-09-03T05:34:01;16.20;99.90
6581;DHT22;3324;50.796;7.228;2022-09-03T05:36:29;16.20;99.90
6581;DHT22;3324;50.796;7.228;2022-09-03T05:38:57;16.20;99.90
6581;DHT22;3324;50.796;7.228;2022-09-03T05:41:23;16.30;99.90
6581;DHT22;3324;50.796;7.228;2022-09-03T05:43:51;16.30;99.90
6581;DHT22;3324;50.796;7.228;2022-09-03T05:46:22;16.40;99.90
6581;DHT22;3324;50.796;7.228;2022-09-03T05:48:54;16.50;99.90
6581;DHT22;3324;50.796;7.228;2022-09-03T05:51:20;16.50;99.90
6581;DHT22;3324;50.796;7.228;2022-09-03T05:53:47;16.50;99.90
6581;DHT22;3324;50.796;7.228;2022-09-03T05:56:18;16.60;99.90
6581;DHT22;3324;50.796;7.228;2022-09-03T05:58:46;16.60;99.90
6581;DHT22;3324;50.796;7.228;2022-09-03T06:01:27;16.70;99.90
6581;DHT22;3324;50.796;7.228;2022-09-03T06:03:57;16.60;99.90
6581;DHT22;3324;50.796;7.228;2022-09-03T06:06:24;16.70;99.90
6581;DHT22;3324;50.796;7.228;2022-09-03T06:08:58;16.70;99.90
6581;DHT22;3324;50.796;7.228;2022-09-03T06:11:25;16.80;99.90
6581;DHT22;3324;50.796;7.228;2022-09-03T06:13:58;16.80;99.90
6581;DHT22;3324;50.796;7.228;2022-09-03T06:16:26;16.80;99.90
6581;DHT22;3324;50.796;7.228;2022-09-03T06:18:52;16.90;99.90
6581;DHT22;3324;50.796;7.228;2022-09-03T06:21:18;16.90;99.90
6581;DHT22;3324;50.796;7.228;2022-09-03T06:23:52;16.90;99.90
6581;DHT22;3324;50.796;7.228;2022-09-03T06:26:18;17.00;99.90
6581;DHT22;3324;50.796;7.228;2022-09-03T06:28:45;17.00;99.90
6581;DHT22;3324;50.796;7.228;2022-09-03T06:31:14;17.10;99.90
6581;DHT22;3324;50.796;7.228;2022-09-03T06:33:41;17.20;99.90
6581;DHT22;3324;50.796;7.228;2022-09-03T06:36:09;17.30;99.90
6581;DHT22;3324;50.796;7.228;2022-09-03T06:38:36;17.30;99.90
6581;DHT22;3324;50.796;7.228;2022-09-03T06:41:07;17.40;99.90
6581;DHT22;3324;50.796;7.228;2022-09-03T06:43:35;17.40;99.90
6581;DHT22;3324;50.796;7.228;2022-09-03T06:46:09;17.60;99.90
6581;DHT22;3324;50.796;7.228;2022-09-03T06:48:36;17.80;99.90
6581;DHT22;3324;50.796;7.228;2022-09-03T06:51:07;18.00;99.90
6581;DHT22;3324;50.796;7.228;2022-09-03T06:53:36;18.20;99.90
6581;DHT22;3324;50.796;7.228;2022-09-03T06:56:04;18.30;99.90
6581;DHT22;3324;50.796;7.228;2022-09-03T06:58:36;18.40;99.90
6581;DHT22;3324;50.796;7.228;2022-09-03T07:01:05;18.40;99.90
6581;DHT22;3324;50.796;7.228;2022-09-03T07:03:31;18.40;99.90
6581;DHT22;3324;50.796;7.228;2022-09-03T07:06:14;18.50;99.90
6581;DHT22;3324;50.796;7.228;2022-09-03T07:08:41;18.70;99.90
6581;DHT22;3324;50.796;7.228;2022-09-03T07:11:09;18.80;99.90
6581;DHT22;3324;50.796;7.228;2022-09-03T07:13:36;19.00;99.90
6581;DHT22;3324;50.796;7.228;2022-09-03T07:16:23;19.10;99.90
6581;DHT22;3324;50.796;7.228;2022-09-03T07:18:50;19.10;99.90
6581;DHT22;3324;50.796;7.228;2022-09-03T07:21:18;19.10;99.90
6581;DHT22;3324;50.796;7.228;2022-09-03T07:23:45;19.30;99.90
6581;DHT22;3324;50.796;7.228;2022-09-03T07:26:23;19.40;99.90
6581;DHT22;3324;50.796;7.228;2022-09-03T07:28:49;19.30;99.90
6581;DHT22;3324;50.796;7.228;2022-09-03T07:31:18;19.20;99.90
6581;DHT22;3324;50.796;7.228;2022-09-03T07:33:45;19.10;99.90
6581;DHT22;3324;50.796;7.228;2022-09-03T07:36:13;19.00;99.90
6581;DHT22;3324;50.796;7.228;2022-09-03T07:38:41;18.90;99.90
6581;DHT22;3324;50.796;7.228;2022-09-03T07:41:09;18.80;99.90
6581;DHT22;3324;50.796;7.228;2022-09-03T07:43:38;18.80;99.90
6581;DHT22;3324;50.796;7.228;2022-09-03T07:46:11;18.70;99.90
6581;DHT22;3324;50.796;7.228;2022-09-03T07:48:39;18.70;99.90
6581;DHT22;3324;50.796;7.228;2022-09-03T07:51:05;18.70;99.90
6581;DHT22;3324;50.796;7.228;2022-09-03T07:53:30;18.70;99.90
6581;DHT22;3324;50.796;7.228;2022-09-03T07:56:05;18.70;99.90
6581;DHT22;3324;50.796;7.228;2022-09-03T07:58:32;18.60;99.90
6581;DHT22;3324;50.796;7.228;2022-09-03T08:01:03;18.60;99.90
6581;DHT22;3324;50.796;7.228;2022-09-03T08:03:29;18.60;99.90
6581;DHT22;3324;50.796;7.228;2022-09-03T08:06:03;18.50;99.90
6581;DHT22;3324;50.796;7.228;2022-09-03T08:08:30;18.50;99.90
6581;DHT22;3324;50.796;7.228;2022-09-03T08:11:03;18.50;99.90
6581;DHT22;3324;50.796;7.228;2022-09-03T08:13:31;18.50;99.90
6581;DHT22;3324;50.796;7.228;2022-09-03T08:15:58;18.50;99.90
6581;DHT22;3324;50.796;7.228;2022-09-03T08:18:25;18.50;99.90
6581;DHT22;3324;50.796;7.228;2022-09-03T08:20:51;18.40;99.90
6581;DHT22;3324;50.796;7.228;2022-09-03T08:23:17;18.30;99.90
6581;DHT22;3324;50.796;7.228;2022-09-03T08:25:42;18.30;99.90
6581;DHT22;3324;50.796;7.228;2022-09-03T08:28:08;18.30;99.90
6581;DHT22;3324;50.796;7.228;2022-09-03T08:30:35;18.40;99.90
6581;DHT22;3324;50.796;7.228;2022-09-03T08:33:01;18.30;99.90
6581;DHT22;3324;50.796;7.228;2022-09-03T08:35:29;18.40;99.90
6581;DHT22;3324;50.796;7.228;2022-09-03T08:37:56;18.50;99.90
6581;DHT22;3324;50.796;7.228;2022-09-03T08:40:22;18.40;99.90
6581;DHT22;3324;50.796;7.228;2022-09-03T08:43:00;18.40;99.90
6581;DHT22;3324;50.796;7.228;2022-09-03T08:45:31;18.40;99.90
6581;DHT22;3324;50.796;7.228;2022-09-03T08:48:09;18.30;99.90
6581;DHT22;3324;50.796;7.228;2022-09-03T08:50:43;18.30;99.90
6581;DHT22;3324;50.796;7.228;2022-09-03T08:53:28;18.30;99.90
6581;DHT22;3324;50.796;7.228;2022-09-03T08:56:01;18.20;99.90
6581;DHT22;3324;50.796;7.228;2022-09-03T08:58:31;18.20;99.90
6581;DHT22;3324;50.796;7.228;2022-09-03T09:06:59;18.20;99.90
6581;DHT22;3324;50.796;7.228;2022-09-03T09:15:09;18.20;99.90
6581;DHT22;3324;50.796;7.228;2022-09-03T09:23:00;18.40;99.90
6581;DHT22;3324;50.796;7.228;2022-09-03T09:25:27;18.50;99.90
6581;DHT22;3324;50.796;7.228;2022-09-03T09:27:57;18.50;99.90
6581;DHT22;3324;50.796;7.228;2022-09-03T09:30:24;18.60;99.90
6581;DHT22;3324;50.796;7.228;2022-09-03T09:32:50;18.70;99.90
6581;DHT22;3324;50.796;7.228;2022-09-03T09:35:17;18.80;99.90
6581;DHT22;3324;50.796;7.228;2022-09-03T09:38:09;18.90;99.90
6581;DHT22;3324;50.796;7.228;2022-09-03T09:40:37;19.00;99.90
6581;DHT22;3324;50.796;7.228;2022-09-03T09:43:04;19.10;99.90
6581;DHT22;3324;50.796;7.228;2022-09-03T09:45:30;19.20;99.90
6581;DHT22;3324;50.796;7.228;2022-09-03T09:47:58;19.40;99.90
6581;DHT22;3324;50.796;7.228;2022-09-03T09:50:25;19.30;99.90
6581;DHT22;3324;50.796;7.228;2022-09-03T09:53:06;19.50;99.90
6581;DHT22;3324;50.796;7.228;2022-09-03T09:55:57;19.50;99.90
6581;DHT22;3324;50.796;7.228;2022-09-03T09:58:25;19.50;99.90
6581;DHT22;3324;50.796;7.228;2022-09-03T10:01:19;19.60;99.90
6581;DHT22;3324;50.796;7.228;2022-09-03T10:03:57;19.70;99.90
6581;DHT22;3324;50.796;7.228;2022-09-03T10:06:25;19.90;99.90
6581;DHT22;3324;50.796;7.228;2022-09-03T10:09:11;20.10;99.90
6581;DHT22;3324;50.796;7.228;2022-09-03T10:11:41;20.40;99.90
6581;DHT22;3324;50.796;7.228;2022-09-03T10:14:16;20.40;99.90
6581;DHT22;3324;50.796;7.228;2022-09-03T10:16:45;20.50;99.90
6581;DHT22;3324;50.796;7.228;2022-09-03T10:19:30;20.70;99.90
6581;DHT22;3324;50.796;7.228;2022-09-03T10:22:11;20.80;99.90
6581;DHT22;3324;50.796;7.228;2022-09-03T10:27:09;21.00;99.90
6581;DHT22;3324;50.796;7.228;2022-09-03T10:29:39;21.10;99.90
6581;DHT22;3324;50.796;7.228;2022-09-03T10:37:46;21.70;99.90
6581;DHT22;3324;50.796;7.228;2022-09-03T10:43:18;22.40;99.90
6581;DHT22;3324;50.796;7.228;2022-09-03T10:45:53;22.60;99.90
6581;DHT22;3324;50.796;7.228;2022-09-03T10:51:39;22.60;99.90
6581;DHT22;3324;50.796;7.228;2022-09-03T10:59:43;22.40;99.90
6581;DHT22;3324;50.796;7.228;2022-09-03T11:05:20;22.30;99.90
6581;DHT22;3324;50.796;7.228;2022-09-03T11:08:06;22.30;99.90
6581;DHT22;3324;50.796;7.228;2022-09-03T11:10:39;22.30;99.90
6581;DHT22;3324;50.796;7.228;2022-09-03T11:13:15;22.40;99.90
6581;DHT22;3324;50.796;7.228;2022-09-03T11:15:58;22.50;99.90
6581;DHT22;3324;50.796;7.228;2022-09-03T11:18:26;22.60;99.90
6581;DHT22;3324;50.796;7.228;2022-09-03T11:20:57;22.60;99.90
6581;DHT22;3324;50.796;7.228;2022-09-03T11:23:27;22.60;99.90
6581;DHT22;3324;50.796;7.228;2022-09-03T11:25:59;22.70;99.90
6581;DHT22;3324;50.796;7.228;2022-09-03T11:31:23;22.90;99.90
6581;DHT22;3324;50.796;7.228;2022-09-03T11:34:14;23.30;99.90
6581;DHT22;3324;50.796;7.228;2022-09-03T11:36:40;23.70;99.90
6581;DHT22;3324;50.796;7.228;2022-09-03T11:39:21;24.10;99.90
6581;DHT22;3324;50.796;7.228;2022-09-03T11:42:02;24.30;99.90
6581;DHT22;3324;50.796;7.228;2022-09-03T11:44:36;24.30;99.90
6581;DHT22;3324;50.796;7.228;2022-09-03T11:47:14;24.10;99.90
6581;DHT22;3324;50.796;7.228;2022-09-03T11:49:46;23.80;99.90
6581;DHT22;3324;50.796;7.228;2022-09-03T11:52:12;23.70;99.90
6581;DHT22;3324;50.796;7.228;2022-09-03T11:54:45;23.90;99.90
6581;DHT22;3324;50.796;7.228;2022-09-03T11:57:28;23.80;99.90
6581;DHT22;3324;50.796;7.228;2022-09-03T12:00:07;23.70;99.90
6581;DHT22;3324;50.796;7.228;2022-09-03T12:02:35;23.70;99.90
6581;DHT22;3324;50.796;7.228;2022-09-03T12:11:06;23.90;99.90
6581;DHT22;3324;50.796;7.228;2022-09-03T12:13:46;24.20;99.90
6581;DHT22;3324;50.796;7.228;2022-09-03T12:16:30;24.00;99.90
6581;DHT22;3324;50.796;7.228;2022-09-03T12:19:05;23.80;99.90
6581;DHT22;3324;50.796;7.228;2022-09-03T12:21:39;24.00;99.90
6581;DHT22;3324;50.796;7.228;2022-09-03T12:24:05;24.10;99.90
6581;DHT22;3324;50.796;7.228;2022-09-03T12:26:39;24.20;99.90
6581;DHT22;3324;50.796;7.228;2022-09-03T12:29:06;24.30;99.90
6581;DHT22;3324;50.796;7.228;2022-09-03T12:31:43;24.50;99.90
6581;DHT22;3324;50.796;7.228;2022-09-03T12:34:11;24.80;99.90
6581;DHT22;3324;50.796;7.228;2022-09-03T12:36:44;24.90;99.90
6581;DHT22;3324;50.796;7.228;2022-09-03T12:39:24;24.90;99.90
6581;DHT22;3324;50.796;7.228;2022-09-03T12:47:10;25.10;99.90
6581;DHT22;3324;50.796;7.228;2022-09-03T12:49:41;25.20;99.90
6581;DHT22;3324;50.796;7.228;2022-09-03T12:52:14;25.30;99.90
6581;DHT22;3324;50.796;7.228;2022-09-03T12:57:24;25.50;99.90
6581;DHT22;3324;50.796;7.228;2022-09-03T12:59:53;25.50;99.90
6581;DHT22;3324;50.796;7.228;2022-09-03T13:02:26;25.60;99.90
6581;DHT22;3324;50.796;7.228;2022-09-03T13:04:53;25.70;99.90
6581;DHT22;3324;50.796;7.228;2022-09-03T13:09:50;25.80;99.90
6581;DHT22;3324;50.796;7.228;2022-09-03T13:12:31;25.80;99.90
6581;DHT22;3324;50.796;7.228;2022-09-03T13:14:57;25.80;99.90
6581;DHT22;3324;50.796;7.228;2022-09-03T13:28:36;26.20;99.90
6581;DHT22;3324;50.796;7.228;2022-09-03T13:39:26;25.90;99.90
6581;DHT22;3324;50.796;7.228;2022-09-03T13:42:18;25.90;99.90
6581;DHT22;3324;50.796;7.228;2022-09-03T13:45:55;26.00;99.90
6581;DHT22;3324;50.796;7.228;2022-09-03T13:48:19;26.10;99.90
6581;DHT22;3324;50.796;7.228;2022-09-03T13:56:35;26.00;99.90
6581;DHT22;3324;50.796;7.228;2022-09-03T13:59:35;26.00;99.90
6581;DHT22;3324;50.796;7.228;2022-09-03T14:02:22;26.10;99.90
6581;DHT22;3324;50.796;7.228;2022-09-03T14:05:05;26.10;99.90
6581;DHT22;3324;50.796;7.228;2022-09-03T14:10:43;26.00;99.90
6581;DHT22;3324;50.796;7.228;2022-09-03T14:21:56;25.70;99.90
6581;DHT22;3324;50.796;7.228;2022-09-03T14:24:46;25.90;99.90
6581;DHT22;3324;50.796;7.228;2022-09-03T14:27:20;26.00;99.90
6581;DHT22;3324;50.796;7.228;2022-09-03T14:29:53;26.10;99.90
6581;DHT22;3324;50.796;7.228;2022-09-03T14:32:43;26.30;99.90
6581;DHT22;3324;50.796;7.228;2022-09-03T14:40:58;26.20;99.90
6581;DHT22;3324;50.796;7.228;2022-09-03T14:43:39;26.10;99.90
6581;DHT22;3324;50.796;7.228;2022-09-03T15:10:45;25.60;99.90
6581;DHT22;3324;50.796;7.228;2022-09-03T15:13:19;25.50;99.90
6581;DHT22;3324;50.796;7.228;2022-09-03T15:15:58;25.50;99.90
6581;DHT22;3324;50.796;7.228;2022-09-03T15:18:31;25.50;99.90
6581;DHT22;3324;50.796;7.228;2022-09-03T15:27:04;25.20;99.90
6581;DHT22;3324;50.796;7.228;2022-09-03T15:29:55;25.10;99.90
6581;DHT22;3324;50.796;7.228;2022-09-03T15:32:49;25.00;99.90
6581;DHT22;3324;50.796;7.228;2022-09-03T15:35:30;24.90;99.90
6581;DHT22;3324;50.796;7.228;2022-09-03T15:38:08;24.90;99.90
6581;DHT22;3324;50.796;7.228;2022-09-03T15:43:29;24.80;99.90
6581;DHT22;3324;50.796;7.228;2022-09-03T15:45:59;24.70;99.90
6581;DHT22;3324;50.796;7.228;2022-09-03T15:48:55;24.70;99.90
6581;DHT22;3324;50.796;7.228;2022-09-03T15:51:25;24.70;99.90
6581;DHT22;3324;50.796;7.228;2022-09-03T15:54:04;24.60;99.90
6581;DHT22;3324;50.796;7.228;2022-09-03T16:02:03;24.50;99.90
6581;DHT22;3324;50.796;7.228;2022-09-03T16:13:02;24.30;99.90
6581;DHT22;3324;50.796;7.228;2022-09-03T16:16:01;24.00;99.90
6581;DHT22;3324;50.796;7.228;2022-09-03T16:21:01;23.20;99.90
6581;DHT22;3324;50.796;7.228;2022-09-03T16:23:45;22.90;99.90
6581;DHT22;3324;50.796;7.228;2022-09-03T16:26:35;22.70;99.90
6581;DHT22;3324;50.796;7.228;2022-09-03T16:29:11;22.50;99.90
6581;DHT22;3324;50.796;7.228;2022-09-03T16:40:21;21.90;99.90
6581;DHT22;3324;50.796;7.228;2022-09-03T16:57:32;21.30;99.90
6581;DHT22;3324;50.796;7.228;2022-09-03T17:16:48;20.60;99.90
6581;DHT22;3324;50.796;7.228;2022-09-03T17:24:46;20.60;99.90
6581;DHT22;3324;50.796;7.228;2022-09-03T17:41:06;20.40;99.90
6581;DHT22;3324;50.796;7.228;2022-09-03T17:46:24;20.30;99.90
6581;DHT22;3324;50.796;7.228;2022-09-03T17:48:59;20.30;99.90
6581;DHT22;3324;50.796;7.228;2022-09-03T17:51:46;20.20;99.90
6581;DHT22;3324;50.796;7.228;2022-09-03T17:54:32;20.30;99.90
6581;DHT22;3324;50.796;7.228;2022-09-03T18:00:02;20.20;99.90
6581;DHT22;3324;50.796;7.228;2022-09-03T18:02:44;20.10;99.90
6581;DHT22;3324;50.796;7.228;2022-09-03T18:05:32;20.00;99.90
6581;DHT22;3324;50.796;7.228;2022-09-03T18:08:07;19.90;99.90
6581;DHT22;3324;50.796;7.228;2022-09-03T18:11:09;19.80;99.90
6581;DHT22;3324;50.796;7.228;2022-09-03T18:16:42;19.70;99.90
6581;DHT22;3324;50.796;7.228;2022-09-03T18:19:35;19.70;99.90
6581;DHT22;3324;50.796;7.228;2022-09-03T18:22:21;19.70;99.90
6581;DHT22;3324;50.796;7.228;2022-09-03T18:25:12;19.60;99.90
6581;DHT22;3324;50.796;7.228;2022-09-03T18:28:00;19.50;99.90
6581;DHT22;3324;50.796;7.228;2022-09-03T18:30:46;19.50;99.90
6581;DHT22;3324;50.796;7.228;2022-09-03T18:33:30;19.50;99.90
6581;DHT22;3324;50.796;7.228;2022-09-03T18:36:15;19.50;99.90
6581;DHT22;3324;50.796;7.228;2022-09-03T18:39:11;19.50;99.90
6581;DHT22;3324;50.796;7.228;2022-09-03T18:42:28;19.40;99.90
6581;DHT22;3324;50.796;7.228;2022-09-03T19:00:51;19.20;99.90
6581;DHT22;3324;50.796;7.228;2022-09-03T19:07:10;19.10;99.90
6581;DHT22;3324;50.796;7.228;2022-09-03T19:10:14;19.10;99.90
6581;DHT22;3324;50.796;7.228;2022-09-03T19:13:17;19.10;99.90
6581;DHT22;3324;50.796;7.228;2022-09-03T19:16:11;19.00;99.90
6581;DHT22;3324;50.796;7.228;2022-09-03T19:21:55;19.00;99.90
6581;DHT22;3324;50.796;7.228;2022-09-03T19:24:42;18.90;99.90
6581;DHT22;3324;50.796;7.228;2022-09-03T19:30:26;18.90;99.90
6581;DHT22;3324;50.796;7.228;2022-09-03T19:33:25;18.90;99.90
6581;DHT22;3324;50.796;7.228;2022-09-03T19:40:10;18.80;99.90
6581;DHT22;3324;50.796;7.228;2022-09-03T19:55:44;18.70;99.90
6581;DHT22;3324;50.796;7.228;2022-09-03T19:58:32;18.70;99.90
6581;DHT22;3324;50.796;7.228;2022-09-03T20:01:18;18.70;99.90
6581;DHT22;3324;50.796;7.228;2022-09-03T20:04:11;18.70;99.90
6581;DHT22;3324;50.796;7.228;2022-09-03T20:06:58;18.70;99.90
6581;DHT22;3324;50.796;7.228;2022-09-03T20:09:44;18.60;99.90
6581;DHT22;3324;50.796;7.228;2022-09-03T20:12:34;18.60;99.90
6581;DHT22;3324;50.796;7.228;2022-09-03T20:15:05;18.50;99.90
6581;DHT22;3324;50.796;7.228;2022-09-03T20:26:11;18.40;99.90
6581;DHT22;3324;50.796;7.228;2022-09-03T20:29:06;18.40;99.90
6581;DHT22;3324;50.796;7.228;2022-09-03T20:34:34;18.30;99.90
6581;DHT22;3324;50.796;7.228;2022-09-03T20:42:49;18.20;99.90
6581;DHT22;3324;50.796;7.228;2022-09-03T20:45:24;18.30;99.90
6581;DHT22;3324;50.796;7.228;2022-09-03T20:48:04;18.20;99.90
6581;DHT22;3324;50.796;7.228;2022-09-03T20:50:59;18.10;99.90
6581;DHT22;3324;50.796;7.228;2022-09-03T20:56:44;18.20;99.90
6581;DHT22;3324;50.796;7.228;2022-09-03T21:21:58;18.10;99.90
6581;DHT22;3324;50.796;7.228;2022-09-03T21:24:35;18.00;99.90
6581;DHT22;3324;50.796;7.228;2022-09-03T21:27:09;18.00;99.90
6581;DHT22;3324;50.796;7.228;2022-09-03T21:29:45;18.00;99.90
6581;DHT22;3324;50.796;7.228;2022-09-03T21:32:17;18.00;99.90
6581;DHT22;3324;50.796;7.228;2022-09-03T21:37:34;17.90;99.90
6581;DHT22;3324;50.796;7.228;2022-09-03T21:40:01;18.00;99.90
6581;DHT22;3324;50.796;7.228;2022-09-03T21:42:47;17.90;99.90
6581;DHT22;3324;50.796;7.228;2022-09-03T21:48:06;18.00;99.90
6581;DHT22;3324;50.796;7.228;2022-09-03T21:50:50;17.90;99.90
6581;DHT22;3324;50.796;7.228;2022-09-03T21:53:25;17.90;99.90
6581;DHT22;3324;50.796;7.228;2022-09-03T22:03:56;17.90;99.90
6581;DHT22;3324;50.796;7.228;2022-09-03T22:06:29;17.90;99.90
6581;DHT22;3324;50.796;7.228;2022-09-03T22:09:28;17.80;99.90
6581;DHT22;3324;50.796;7.228;2022-09-03T22:12:07;17.80;99.90
6581;DHT22;3324;50.796;7.228;2022-09-03T22:14:43;17.70;99.90
6581;DHT22;3324;50.796;7.228;2022-09-03T22:17:45;17.70;99.90
6581;DHT22;3324;50.796;7.228;2022-09-03T22:20:13;17.70;99.90
6581;DHT22;3324;50.796;7.228;2022-09-03T22:25:18;17.80;99.90
6581;DHT22;3324;50.796;7.228;2022-09-03T22:30:39;17.70;99.90
6581;DHT22;3324;50.796;7.228;2022-09-03T22:46:18;17.60;99.90
6581;DHT22;3324;50.796;7.228;2022-09-03T22:48:56;17.70;99.90
6581;DHT22;3324;50.796;7.228;2022-09-03T22:51:26;17.60;99.90
6581;DHT22;3324;50.796;7.228;2022-09-03T22:56:38;17.60;99.90
6581;DHT22;3324;50.796;7.228;2022-09-03T23:02:07;17.60;99.90
6581;DHT22;3324;50.796;7.228;2022-09-03T23:04:45;17.50;99.90
6581;DHT22;3324;50.796;7.228;2022-09-03T23:07:27;17.50;99.90